createdAt,value
2017-03-29T00:00:01.611Z,19.80
2017-03-29T00:01:02.313Z,19.80
2017-03-29T00:02:02.525Z,19.80
2017-03-29T00:03:03.094Z,19.80
2017-03-29T00:04:03.627Z,19.80
2017-03-29T00:05:04.284Z,19.80
2017-03-29T00:06:05.015Z,19.80
2017-03-29T00:07:06.393Z,19.80
2017-03-29T00:08:06.924Z,19.80
2017-03-29T00:09:07.155Z,19.80
2017-03-29T00:10:07.982Z,19.80
2017-03-29T00:11:08.228Z,19.80
2017-03-29T00:12:08.752Z,19.80
2017-03-29T00:13:09.433Z,19.80
2017-03-29T00:14:09.595Z,19.80
2017-03-29T00:15:09.898Z,19.80
2017-03-29T00:16:10.142Z,19.80
2017-03-29T00:17:10.467Z,19.80
2017-03-29T00:18:10.728Z,19.80
2017-03-29T00:19:11.009Z,19.80
2017-03-29T00:20:11.482Z,19.80
2017-03-29T00:21:11.884Z,19.80
2017-03-29T00:22:12.301Z,19.80
2017-03-29T00:23:12.731Z,19.70
2017-03-29T00:24:13.024Z,19.70
2017-03-29T00:25:13.216Z,19.70
2017-03-29T00:26:13.459Z,19.70
2017-03-29T00:27:13.749Z,19.70
2017-03-29T00:28:13.976Z,19.70
2017-03-29T00:29:14.221Z,19.70
2017-03-29T00:30:15.721Z,19.70
2017-03-29T00:31:16.006Z,19.70
2017-03-29T00:32:16.217Z,19.70
2017-03-29T00:33:16.467Z,19.70
2017-03-29T00:34:16.811Z,19.70
2017-03-29T00:35:17.445Z,19.70
2017-03-29T00:36:17.717Z,19.70
2017-03-29T00:37:18.269Z,19.70
2017-03-29T00:38:18.515Z,19.70
2017-03-29T00:39:18.559Z,19.70
2017-03-29T00:40:18.961Z,19.70
2017-03-29T00:41:19.428Z,19.70
2017-03-29T00:42:19.704Z,19.70
2017-03-29T00:43:20.194Z,19.70
2017-03-29T00:44:20.601Z,19.70
2017-03-29T00:45:20.815Z,19.70
2017-03-29T00:46:22.011Z,19.70
2017-03-29T00:47:22.435Z,19.70
2017-03-29T00:48:22.772Z,19.70
2017-03-29T00:49:25.168Z,19.70
2017-03-29T00:50:25.592Z,19.70
2017-03-29T00:51:25.795Z,19.70
2017-03-29T00:52:26.051Z,19.70
2017-03-29T00:53:26.446Z,19.70
2017-03-29T00:54:26.741Z,19.70
2017-03-29T00:55:26.921Z,19.70
2017-03-29T00:56:27.269Z,19.70
2017-03-29T00:57:27.585Z,19.60
2017-03-29T00:58:27.837Z,19.60
2017-03-29T00:59:28.080Z,19.60
2017-03-29T01:00:28.050Z,19.60
2017-03-29T01:01:28.592Z,19.60
2017-03-29T01:02:29.552Z,19.60
2017-03-29T01:03:29.931Z,19.60
2017-03-29T01:04:30.148Z,19.60
2017-03-29T01:05:30.361Z,19.60
2017-03-29T01:06:30.603Z,19.60
2017-03-29T01:07:30.867Z,19.60
2017-03-29T01:08:31.123Z,19.60
2017-03-29T01:09:31.514Z,19.60
2017-03-29T01:10:31.825Z,19.60
2017-03-29T01:11:32.185Z,19.60
2017-03-29T01:12:32.693Z,19.60
2017-03-29T01:13:33.622Z,19.60
2017-03-29T01:14:33.944Z,19.60
2017-03-29T01:15:34.251Z,19.60
2017-03-29T01:16:34.580Z,19.60
2017-03-29T01:17:35.037Z,19.60
2017-03-29T01:18:35.265Z,19.60
2017-03-29T01:19:35.645Z,19.60
2017-03-29T01:20:35.913Z,19.60
2017-03-29T01:21:36.163Z,19.60
2017-03-29T01:22:36.482Z,19.60
2017-03-29T01:23:36.816Z,19.60
2017-03-29T01:24:36.907Z,19.60
2017-03-29T01:25:37.194Z,19.50
2017-03-29T01:26:37.532Z,19.60
2017-03-29T01:27:37.776Z,19.50
2017-03-29T01:28:38.034Z,19.50
2017-03-29T01:29:38.396Z,19.50
2017-03-29T01:30:38.948Z,19.50
2017-03-29T01:31:39.364Z,19.60
2017-03-29T01:32:39.632Z,19.50
2017-03-29T01:33:39.905Z,19.50
2017-03-29T01:34:40.293Z,19.50
2017-03-29T01:35:40.522Z,19.50
2017-03-29T01:36:40.933Z,19.50
2017-03-29T01:37:41.219Z,19.50
2017-03-29T01:38:41.456Z,19.50
2017-03-29T01:39:41.745Z,19.50
2017-03-29T01:40:41.959Z,19.50
2017-03-29T01:41:42.558Z,19.50
2017-03-29T01:42:43.022Z,19.50
2017-03-29T01:43:43.419Z,19.50
2017-03-29T01:44:43.699Z,19.50
2017-03-29T01:45:44.628Z,19.50
2017-03-29T01:46:44.997Z,19.50
2017-03-29T01:47:45.379Z,19.50
2017-03-29T01:48:45.480Z,19.50
2017-03-29T01:49:45.762Z,19.50
2017-03-29T01:50:46.176Z,19.50
2017-03-29T01:51:46.506Z,19.50
2017-03-29T01:52:46.719Z,19.50
2017-03-29T01:53:47.639Z,19.50
2017-03-29T01:54:48.605Z,19.50
2017-03-29T01:55:49.293Z,19.50
2017-03-29T01:56:49.582Z,19.50
2017-03-29T01:57:49.890Z,19.50
2017-03-29T01:58:50.171Z,19.50
2017-03-29T01:59:50.423Z,19.50
2017-03-29T02:00:50.796Z,19.50
2017-03-29T02:01:51.023Z,19.40
2017-03-29T02:02:51.378Z,19.40
2017-03-29T02:03:51.724Z,19.40
2017-03-29T02:04:51.938Z,19.50
2017-03-29T02:05:52.255Z,19.50
2017-03-29T02:06:52.782Z,19.40
2017-03-29T02:07:53.269Z,19.40
2017-03-29T02:08:53.529Z,19.40
2017-03-29T02:09:54.071Z,19.40
2017-03-29T02:10:54.304Z,19.40
2017-03-29T02:11:54.594Z,19.40
2017-03-29T02:12:54.842Z,19.40
2017-03-29T02:13:55.671Z,19.40
2017-03-29T02:14:55.768Z,19.40
2017-03-29T02:15:55.744Z,19.40
2017-03-29T02:16:56.147Z,19.40
2017-03-29T02:17:56.465Z,19.40
2017-03-29T02:18:56.807Z,19.40
2017-03-29T02:19:57.054Z,19.40
2017-03-29T02:20:57.163Z,19.40
2017-03-29T02:21:57.908Z,19.40
2017-03-29T02:22:58.079Z,19.40
2017-03-29T02:23:58.216Z,19.40
2017-03-29T02:24:58.301Z,19.40
2017-03-29T02:25:58.392Z,19.40
2017-03-29T02:26:58.514Z,19.40
2017-03-29T02:27:58.619Z,19.40
2017-03-29T02:28:58.695Z,19.40
2017-03-29T02:29:58.827Z,19.40
2017-03-29T02:30:58.903Z,19.40
2017-03-29T02:31:58.915Z,19.40
2017-03-29T02:32:59.101Z,19.40
2017-03-29T02:33:59.202Z,19.40
2017-03-29T02:34:59.270Z,19.40
2017-03-29T02:35:59.292Z,19.40
2017-03-29T02:36:59.547Z,19.40
2017-03-29T02:37:59.936Z,19.30
2017-03-29T02:38:59.921Z,19.40
2017-03-29T02:40:00.197Z,19.30
2017-03-29T02:41:00.517Z,19.30
2017-03-29T02:42:00.485Z,19.30
2017-03-29T02:43:00.707Z,19.40
2017-03-29T02:44:00.900Z,19.30
2017-03-29T02:45:01.376Z,19.30
2017-03-29T02:46:01.624Z,19.30
2017-03-29T02:47:01.840Z,19.30
2017-03-29T02:48:02.186Z,19.30
2017-03-29T02:49:02.500Z,19.30
2017-03-29T02:50:02.851Z,19.30
2017-03-29T02:51:03.001Z,19.30
2017-03-29T02:52:03.244Z,19.30
2017-03-29T02:53:03.644Z,19.30
2017-03-29T02:54:03.961Z,19.30
2017-03-29T02:55:04.392Z,19.30
2017-03-29T02:56:04.590Z,19.30
2017-03-29T02:57:04.907Z,19.30
2017-03-29T02:58:04.987Z,19.30
2017-03-29T02:59:05.230Z,19.30
2017-03-29T03:00:05.875Z,19.30
2017-03-29T03:01:06.371Z,19.30
2017-03-29T03:02:06.641Z,19.30
2017-03-29T03:03:06.821Z,19.30
2017-03-29T03:04:07.118Z,19.30
2017-03-29T03:05:07.418Z,19.20
2017-03-29T03:06:07.622Z,19.20
2017-03-29T03:07:07.980Z,19.30
2017-03-29T03:08:08.276Z,19.20
2017-03-29T03:09:08.682Z,19.20
2017-03-29T03:10:09.198Z,19.20
2017-03-29T03:11:09.611Z,19.20
2017-03-29T03:12:09.943Z,19.30
2017-03-29T03:13:11.052Z,19.20
2017-03-29T03:14:11.328Z,19.20
2017-03-29T03:15:11.576Z,19.30
2017-03-29T03:16:11.754Z,19.20
2017-03-29T03:17:12.102Z,19.20
2017-03-29T03:18:12.454Z,19.20
2017-03-29T03:19:12.743Z,19.20
2017-03-29T03:20:12.907Z,19.20
2017-03-29T03:21:13.119Z,19.20
2017-03-29T03:22:13.325Z,19.30
2017-03-29T03:23:14.344Z,19.20
2017-03-29T03:24:14.480Z,19.20
2017-03-29T03:25:14.726Z,19.20
2017-03-29T03:26:15.022Z,19.20
2017-03-29T03:27:15.467Z,19.20
2017-03-29T03:28:15.855Z,19.20
2017-03-29T03:29:16.067Z,19.20
2017-03-29T03:30:16.352Z,19.20
2017-03-29T03:31:16.568Z,19.20
2017-03-29T03:32:16.828Z,19.20
2017-03-29T03:33:17.101Z,19.20
2017-03-29T03:34:17.338Z,19.20
2017-03-29T03:35:17.639Z,19.20
2017-03-29T03:36:17.865Z,19.20
2017-03-29T03:37:18.188Z,19.20
2017-03-29T03:38:18.485Z,19.20
2017-03-29T03:39:18.657Z,19.20
2017-03-29T03:40:19.019Z,19.20
2017-03-29T03:41:19.367Z,19.20
2017-03-29T03:42:20.459Z,19.20
2017-03-29T03:43:20.743Z,19.20
2017-03-29T03:44:21.079Z,19.20
2017-03-29T03:45:21.408Z,19.20
2017-03-29T03:46:21.571Z,19.10
2017-03-29T03:47:21.833Z,19.20
2017-03-29T03:48:21.795Z,19.20
2017-03-29T03:49:22.890Z,19.20
2017-03-29T03:51:23.467Z,19.20
2017-03-29T03:52:23.829Z,19.20
2017-03-29T03:53:24.246Z,19.20
2017-03-29T03:54:24.634Z,19.20
2017-03-29T03:55:24.809Z,19.10
2017-03-29T03:56:25.087Z,19.10
2017-03-29T03:57:25.359Z,19.10
2017-03-29T03:58:25.554Z,19.10
2017-03-29T03:59:25.761Z,19.10
2017-03-29T04:00:26.036Z,19.10
2017-03-29T04:01:26.438Z,19.10
2017-03-29T04:02:26.730Z,19.10
2017-03-29T04:03:26.918Z,19.20
2017-03-29T04:04:27.293Z,19.10
2017-03-29T04:05:28.272Z,19.10
2017-03-29T04:06:28.468Z,19.10
2017-03-29T04:07:28.522Z,19.10
2017-03-29T04:08:28.642Z,19.10
2017-03-29T04:09:28.766Z,19.10
2017-03-29T04:10:28.841Z,19.10
2017-03-29T04:11:28.953Z,19.10
2017-03-29T04:12:29.146Z,19.10
2017-03-29T04:13:29.116Z,19.10
2017-03-29T04:14:30.097Z,19.10
2017-03-29T04:15:30.408Z,19.10
2017-03-29T04:16:30.722Z,19.10
2017-03-29T04:17:31.062Z,19.10
2017-03-29T04:18:31.335Z,19.10
2017-03-29T04:19:31.310Z,19.10
2017-03-29T04:20:31.520Z,19.10
2017-03-29T04:21:32.080Z,19.10
2017-03-29T04:22:32.400Z,19.10
2017-03-29T04:23:33.213Z,19.10
2017-03-29T04:24:33.494Z,19.10
2017-03-29T04:25:33.840Z,19.10
2017-03-29T04:26:34.131Z,19.10
2017-03-29T04:27:34.424Z,19.10
2017-03-29T04:28:34.735Z,19.10
2017-03-29T04:29:35.060Z,19.10
2017-03-29T04:30:35.329Z,19.10
2017-03-29T04:31:35.732Z,19.10
2017-03-29T04:32:36.011Z,19.10
2017-03-29T04:33:36.328Z,19.10
2017-03-29T04:34:36.798Z,19.10
2017-03-29T04:36:50.067Z,19.10
2017-03-29T04:37:50.276Z,19.10
2017-03-29T04:38:50.201Z,19.10
2017-03-29T04:39:50.519Z,19.10
2017-03-29T04:40:50.980Z,19.10
2017-03-29T04:41:51.320Z,19.10
2017-03-29T04:42:52.405Z,19.10
2017-03-29T04:43:52.797Z,19.10
2017-03-29T04:44:53.019Z,19.10
2017-03-29T04:45:53.474Z,19.10
2017-03-29T04:46:53.902Z,19.10
2017-03-29T04:47:54.851Z,19.10
2017-03-29T04:48:55.522Z,19.10
2017-03-29T04:49:55.811Z,19.10
2017-03-29T04:50:56.159Z,19.10
2017-03-29T04:51:56.454Z,19.10
2017-03-29T04:52:56.763Z,19.10
2017-03-29T04:53:57.041Z,19.10
2017-03-29T04:54:57.583Z,19.10
2017-03-29T04:55:57.864Z,19.10
2017-03-29T04:56:58.227Z,19.10
2017-03-29T04:57:58.544Z,19.10
2017-03-29T04:58:58.936Z,19.10
2017-03-29T04:59:59.453Z,19.10
2017-03-29T05:00:59.710Z,19.10
2017-03-29T05:01:59.995Z,19.10
2017-03-29T05:03:00.243Z,19.10
2017-03-29T05:04:00.583Z,19.10
2017-03-29T05:05:00.860Z,19.10
2017-03-29T05:06:01.097Z,19.10
2017-03-29T05:07:01.450Z,19.10
2017-03-29T05:08:01.473Z,19.10
2017-03-29T05:09:01.791Z,19.10
2017-03-29T05:10:02.238Z,19.10
2017-03-29T05:11:02.701Z,19.10
2017-03-29T05:12:02.993Z,19.10
2017-03-29T05:13:03.398Z,19.10
2017-03-29T05:14:03.858Z,19.10
2017-03-29T05:15:04.380Z,19.10
2017-03-29T05:16:04.558Z,19.10
2017-03-29T05:17:04.802Z,19.10
2017-03-29T05:18:05.143Z,19.10
2017-03-29T05:19:05.141Z,19.10
2017-03-29T05:20:05.426Z,19.20
2017-03-29T05:21:05.648Z,19.20
2017-03-29T05:22:05.677Z,19.30
2017-03-29T05:25:28.572Z,19.40
2017-03-29T05:26:28.579Z,19.40
2017-03-29T05:27:28.966Z,19.40
2017-03-29T05:28:29.457Z,19.40
2017-03-29T05:29:29.766Z,19.50
2017-03-29T05:30:29.804Z,19.50
2017-03-29T05:31:30.775Z,19.50
2017-03-29T05:32:31.189Z,19.50
2017-03-29T05:33:31.523Z,19.50
2017-03-29T05:34:31.816Z,19.50
2017-03-29T05:35:32.036Z,19.50
2017-03-29T05:36:32.249Z,19.50
2017-03-29T05:37:32.557Z,19.60
2017-03-29T05:38:32.919Z,19.60
2017-03-29T05:39:33.199Z,19.60
2017-03-29T05:40:33.623Z,19.60
2017-03-29T05:41:33.816Z,19.60
2017-03-29T05:42:34.052Z,19.60
2017-03-29T05:43:34.597Z,19.70
2017-03-29T05:44:35.091Z,19.70
2017-03-29T05:45:35.386Z,19.70
2017-03-29T05:46:35.632Z,19.70
2017-03-29T05:47:35.947Z,19.70
2017-03-29T05:48:36.341Z,19.70
2017-03-29T05:49:36.837Z,19.70
2017-03-29T05:50:36.862Z,19.70
2017-03-29T05:51:37.351Z,19.80
2017-03-29T05:52:37.691Z,19.80
2017-03-29T05:53:37.996Z,19.80
2017-03-29T05:54:38.240Z,19.80
2017-03-29T05:55:38.619Z,19.80
2017-03-29T05:56:39.023Z,19.80
2017-03-29T05:57:39.181Z,19.80
2017-03-29T05:58:39.452Z,19.80
2017-03-29T05:59:39.698Z,19.90
2017-03-29T06:00:39.986Z,19.90
2017-03-29T06:01:40.456Z,19.90
2017-03-29T06:02:40.700Z,19.90
2017-03-29T06:03:40.899Z,19.90
2017-03-29T06:04:41.268Z,19.90
2017-03-29T06:05:41.577Z,19.90
2017-03-29T06:06:41.941Z,19.90
2017-03-29T06:07:42.449Z,20.00
2017-03-29T06:08:42.803Z,20.00
2017-03-29T06:09:43.204Z,20.00
2017-03-29T06:10:43.427Z,20.00
2017-03-29T06:11:43.725Z,20.00
2017-03-29T06:12:43.944Z,19.90
2017-03-29T06:13:44.301Z,20.00
2017-03-29T06:14:44.622Z,19.90
2017-03-29T06:15:45.022Z,20.00
2017-03-29T06:16:45.305Z,20.00
2017-03-29T06:17:45.736Z,20.00
2017-03-29T06:18:46.062Z,20.00
2017-03-29T06:19:46.381Z,20.00
2017-03-29T06:20:46.678Z,20.00
2017-03-29T06:21:47.086Z,20.00
2017-03-29T06:22:47.395Z,20.00
2017-03-29T06:23:47.723Z,20.00
2017-03-29T06:24:48.128Z,20.00
2017-03-29T06:25:48.396Z,20.00
2017-03-29T06:26:48.859Z,20.00
2017-03-29T06:27:49.821Z,20.00
2017-03-29T06:28:50.230Z,20.00
2017-03-29T06:29:50.491Z,20.00
2017-03-29T06:30:50.819Z,20.10
2017-03-29T06:31:51.289Z,20.10
2017-03-29T06:32:51.601Z,20.10
2017-03-29T06:33:51.853Z,20.10
2017-03-29T06:34:52.085Z,20.10
2017-03-29T06:35:52.374Z,20.10
2017-03-29T06:36:52.655Z,20.10
2017-03-29T06:37:53.070Z,20.10
2017-03-29T06:38:53.447Z,20.10
2017-03-29T06:39:53.744Z,20.10
2017-03-29T06:40:53.796Z,20.10
2017-03-29T06:41:54.853Z,20.20
2017-03-29T06:42:55.985Z,20.10
2017-03-29T06:43:56.286Z,20.20
2017-03-29T06:44:57.299Z,20.10
2017-03-29T06:45:57.620Z,20.20
2017-03-29T06:46:57.984Z,20.20
2017-03-29T06:47:58.213Z,20.20
2017-03-29T06:48:59.725Z,20.20
2017-03-29T06:50:00.789Z,20.20
2017-03-29T06:51:01.723Z,20.20
2017-03-29T06:52:02.659Z,20.20
2017-03-29T06:53:02.731Z,20.20
2017-03-29T06:54:03.301Z,20.20
2017-03-29T06:55:03.661Z,20.20
2017-03-29T06:56:03.907Z,20.20
2017-03-29T06:57:04.230Z,20.20
2017-03-29T06:58:04.646Z,20.20
2017-03-29T06:59:05.017Z,20.20
2017-03-29T07:00:05.275Z,20.30
2017-03-29T07:01:06.203Z,20.30
2017-03-29T07:02:06.496Z,20.30
2017-03-29T07:03:06.933Z,20.30
2017-03-29T07:04:07.314Z,20.30
2017-03-29T07:05:07.919Z,20.30
2017-03-29T07:06:08.430Z,20.30
2017-03-29T07:07:08.600Z,20.30
2017-03-29T07:08:09.010Z,20.30
2017-03-29T07:09:09.396Z,20.30
2017-03-29T07:10:09.702Z,20.30
2017-03-29T07:11:10.054Z,20.30
2017-03-29T07:12:10.329Z,20.30
2017-03-29T07:13:10.746Z,20.30
2017-03-29T07:14:10.761Z,20.30
2017-03-29T07:15:10.979Z,20.30
2017-03-29T07:16:11.108Z,20.30
2017-03-29T07:17:11.468Z,20.30
2017-03-29T07:18:12.541Z,20.30
2017-03-29T07:19:16.846Z,20.30
2017-03-29T07:20:17.233Z,20.30
2017-03-29T07:21:18.306Z,20.30
2017-03-29T07:22:18.659Z,20.40
2017-03-29T07:23:18.960Z,20.40
2017-03-29T07:24:19.373Z,20.30
2017-03-29T07:25:19.681Z,20.40
2017-03-29T07:26:20.054Z,20.40
2017-03-29T07:27:20.131Z,20.40
2017-03-29T07:28:20.579Z,20.40
2017-03-29T07:29:20.823Z,20.40
2017-03-29T07:30:21.012Z,20.40
2017-03-29T07:31:21.251Z,20.40
2017-03-29T07:32:21.620Z,20.40
2017-03-29T07:33:22.037Z,20.40
2017-03-29T07:34:22.490Z,20.50
2017-03-29T07:35:22.906Z,20.40
2017-03-29T07:36:23.204Z,20.40
2017-03-29T07:37:23.548Z,20.50
2017-03-29T07:38:24.030Z,20.40
2017-03-29T07:39:24.377Z,20.40
2017-03-29T07:40:24.813Z,20.50
2017-03-29T07:41:25.942Z,20.40
2017-03-29T07:42:26.094Z,20.40
2017-03-29T07:43:26.467Z,20.40
2017-03-29T07:44:26.706Z,20.40
2017-03-29T07:45:27.503Z,20.40
2017-03-29T07:46:28.760Z,20.40
2017-03-29T07:47:28.932Z,20.40
2017-03-29T07:48:29.282Z,20.50
2017-03-29T07:49:29.478Z,20.50
2017-03-29T07:50:29.644Z,20.50
2017-03-29T07:51:33.967Z,20.40
2017-03-29T07:52:34.240Z,20.40
2017-03-29T07:53:34.584Z,20.40
2017-03-29T07:54:38.184Z,20.40
2017-03-29T07:55:39.461Z,20.40
2017-03-29T07:56:40.149Z,20.30
2017-03-29T07:57:40.854Z,20.30
2017-03-29T07:58:41.135Z,20.30
2017-03-29T07:59:41.416Z,20.30
2017-03-29T08:00:41.653Z,20.30
2017-03-29T08:01:41.937Z,20.30
2017-03-29T08:02:42.303Z,20.20
2017-03-29T08:03:42.363Z,20.20
2017-03-29T08:04:42.682Z,20.20
2017-03-29T08:05:43.263Z,20.20
2017-03-29T08:06:43.612Z,20.10
2017-03-29T08:07:43.907Z,20.20
2017-03-29T08:08:44.013Z,20.10
2017-03-29T08:09:44.297Z,20.10
2017-03-29T08:10:45.545Z,20.10
2017-03-29T08:11:45.895Z,20.10
2017-03-29T08:12:46.152Z,20.10
2017-03-29T08:13:46.505Z,20.10
2017-03-29T08:14:46.905Z,20.10
2017-03-29T08:15:47.223Z,20.10
2017-03-29T08:16:47.573Z,20.10
2017-03-29T08:17:48.053Z,20.10
2017-03-29T08:18:48.413Z,20.10
2017-03-29T08:19:49.419Z,20.00
2017-03-29T08:20:49.678Z,20.10
2017-03-29T08:21:50.035Z,20.10
2017-03-29T08:22:50.304Z,20.10
2017-03-29T08:23:50.592Z,20.00
2017-03-29T08:24:50.841Z,20.00
2017-03-29T08:25:51.305Z,20.00
2017-03-29T08:26:51.555Z,20.00
2017-03-29T08:27:52.001Z,20.00
2017-03-29T08:28:52.339Z,20.00
2017-03-29T08:29:52.632Z,20.00
2017-03-29T08:30:53.194Z,20.00
2017-03-29T08:31:53.621Z,20.00
2017-03-29T08:32:53.896Z,20.00
2017-03-29T08:33:54.458Z,20.00
2017-03-29T08:34:54.750Z,20.00
2017-03-29T08:35:55.138Z,20.00
2017-03-29T08:36:55.419Z,20.00
2017-03-29T08:37:55.564Z,20.00
2017-03-29T08:38:55.848Z,20.00
2017-03-29T08:39:56.105Z,20.00
2017-03-29T08:40:56.459Z,20.00
2017-03-29T08:41:56.913Z,20.00
2017-03-29T08:42:57.142Z,20.00
2017-03-29T08:43:57.552Z,19.90
2017-03-29T08:44:57.833Z,19.90
2017-03-29T08:45:58.048Z,19.90
2017-03-29T08:46:58.228Z,19.90
2017-03-29T08:47:58.285Z,19.90
2017-03-29T08:48:58.601Z,19.90
2017-03-29T08:49:58.774Z,19.90
2017-03-29T08:50:59.068Z,19.90
2017-03-29T08:51:59.077Z,19.90
2017-03-29T08:52:59.184Z,19.90
2017-03-29T08:53:59.272Z,19.90
2017-03-29T08:54:59.298Z,19.90
2017-03-29T08:55:59.310Z,19.90
2017-03-29T08:56:59.632Z,19.90
2017-03-29T08:57:59.963Z,19.90
2017-03-29T08:59:00.349Z,19.90
2017-03-29T09:00:00.555Z,19.90
2017-03-29T09:01:01.528Z,19.80
2017-03-29T09:02:01.862Z,19.90
2017-03-29T09:03:02.103Z,19.90
2017-03-29T09:04:02.427Z,19.90
2017-03-29T09:05:02.730Z,19.90
2017-03-29T09:06:03.039Z,19.90
2017-03-29T09:07:03.421Z,19.90
2017-03-29T09:08:03.700Z,19.90
2017-03-29T09:09:05.337Z,19.80
2017-03-29T09:10:05.609Z,19.90
2017-03-29T09:11:05.903Z,19.90
2017-03-29T09:12:06.076Z,19.90
2017-03-29T09:13:06.456Z,19.90
2017-03-29T09:14:06.731Z,19.90
2017-03-29T09:15:07.027Z,19.80
2017-03-29T09:16:07.268Z,19.80
2017-03-29T09:17:07.602Z,19.80
2017-03-29T09:18:07.635Z,19.80
2017-03-29T09:19:08.008Z,19.80
2017-03-29T09:20:08.353Z,19.80
2017-03-29T09:21:08.540Z,19.80
2017-03-29T09:22:09.025Z,19.80
2017-03-29T09:23:09.236Z,19.80
2017-03-29T09:24:09.444Z,19.80
2017-03-29T09:25:09.727Z,19.80
2017-03-29T09:26:10.054Z,19.80
2017-03-29T09:27:11.008Z,19.80
2017-03-29T09:28:11.316Z,19.80
2017-03-29T09:29:11.696Z,19.80
2017-03-29T09:30:20.733Z,19.80
2017-03-29T09:31:21.058Z,19.70
2017-03-29T09:32:22.187Z,19.80
2017-03-29T09:33:22.567Z,19.80
2017-03-29T09:34:22.888Z,19.80
2017-03-29T09:35:23.320Z,19.70
2017-03-29T09:36:23.661Z,19.80
2017-03-29T09:37:23.877Z,19.80
2017-03-29T09:38:24.101Z,19.70
2017-03-29T09:39:24.427Z,19.80
2017-03-29T09:40:24.726Z,19.70
2017-03-29T09:41:25.111Z,19.70
2017-03-29T09:42:25.534Z,19.70
2017-03-29T09:43:25.743Z,19.80
2017-03-29T09:44:25.953Z,19.80
2017-03-29T09:45:30.274Z,19.70
2017-03-29T09:46:30.456Z,19.70
2017-03-29T09:47:30.451Z,19.70
2017-03-29T09:48:30.826Z,19.70
2017-03-29T09:49:31.032Z,19.70
2017-03-29T09:50:31.560Z,19.70
2017-03-29T09:51:32.298Z,19.70
2017-03-29T09:52:33.189Z,19.70
2017-03-29T09:53:33.637Z,19.70
2017-03-29T09:54:33.979Z,19.70
2017-03-29T09:55:34.296Z,19.70
2017-03-29T09:56:34.993Z,19.70
2017-03-29T09:57:35.368Z,19.70
2017-03-29T09:58:35.584Z,19.70
2017-03-29T09:59:35.896Z,19.70
2017-03-29T10:00:36.425Z,19.70
2017-03-29T10:01:36.962Z,19.70
2017-03-29T10:02:37.287Z,19.70
2017-03-29T10:03:37.632Z,19.70
2017-03-29T10:04:38.688Z,19.70
2017-03-29T10:05:38.945Z,19.70
2017-03-29T10:06:39.366Z,19.70
2017-03-29T10:07:39.754Z,19.70
2017-03-29T10:08:40.110Z,19.70
2017-03-29T10:09:40.430Z,19.70
2017-03-29T10:10:40.679Z,19.70
2017-03-29T10:11:41.147Z,19.70
2017-03-29T10:12:41.569Z,19.70
2017-03-29T10:13:41.956Z,19.70
2017-03-29T10:14:42.410Z,19.70
2017-03-29T10:15:42.519Z,19.70
2017-03-29T10:16:43.708Z,19.70
2017-03-29T10:17:43.733Z,19.70
2017-03-29T10:18:44.136Z,19.70
2017-03-29T10:19:44.413Z,19.70
2017-03-29T10:20:44.877Z,19.70
2017-03-29T10:21:45.174Z,19.70
2017-03-29T10:22:45.714Z,19.70
2017-03-29T10:23:45.978Z,19.70
2017-03-29T10:24:46.235Z,19.70
2017-03-29T10:25:46.550Z,19.70
2017-03-29T10:26:46.996Z,19.70
2017-03-29T10:27:47.412Z,19.70
2017-03-29T10:28:47.693Z,19.70
2017-03-29T10:29:48.064Z,19.70
2017-03-29T10:30:48.335Z,19.70
2017-03-29T10:31:48.858Z,19.70
2017-03-29T10:32:49.347Z,19.70
2017-03-29T10:33:49.572Z,19.70
2017-03-29T10:34:49.861Z,19.70
2017-03-29T10:35:50.314Z,19.70
2017-03-29T10:36:50.593Z,19.70
2017-03-29T10:37:50.606Z,19.70
2017-03-29T10:38:50.879Z,19.70
2017-03-29T10:39:51.283Z,19.70
2017-03-29T10:40:51.512Z,19.70
2017-03-29T10:41:51.853Z,19.70
2017-03-29T10:42:52.170Z,19.70
2017-03-29T10:43:52.486Z,19.70
2017-03-29T10:44:52.793Z,19.70
2017-03-29T10:45:53.154Z,19.70
2017-03-29T10:46:53.766Z,19.70
2017-03-29T10:47:54.119Z,19.70
2017-03-29T10:48:54.356Z,19.70
2017-03-29T10:49:54.556Z,19.70
2017-03-29T10:50:54.801Z,19.70
2017-03-29T10:51:55.158Z,19.70
2017-03-29T10:52:56.179Z,19.70
2017-03-29T10:54:07.550Z,19.70
2017-03-29T10:55:07.835Z,19.80
2017-03-29T10:56:08.225Z,19.90
2017-03-29T10:57:08.462Z,19.90
2017-03-29T10:58:08.940Z,19.90
2017-03-29T10:59:09.286Z,20.00
2017-03-29T11:00:09.620Z,20.00
2017-03-29T11:01:09.975Z,20.00
2017-03-29T11:02:09.976Z,20.00
2017-03-29T11:03:10.769Z,20.00
2017-03-29T11:04:11.067Z,20.00
2017-03-29T11:05:11.257Z,20.00
2017-03-29T11:06:11.570Z,20.10
2017-03-29T11:07:11.779Z,20.10
2017-03-29T11:08:12.097Z,20.10
2017-03-29T11:09:12.522Z,20.10
2017-03-29T11:10:12.843Z,20.10
2017-03-29T11:11:13.257Z,20.10
2017-03-29T11:12:13.680Z,20.20
2017-03-29T11:13:13.985Z,20.20
2017-03-29T11:14:14.424Z,20.10
2017-03-29T11:15:14.902Z,20.10
2017-03-29T11:16:15.799Z,20.10
2017-03-29T11:17:16.146Z,20.00
2017-03-29T11:18:18.252Z,20.00
2017-03-29T11:19:18.492Z,20.10
2017-03-29T11:20:18.975Z,20.00
2017-03-29T11:21:25.541Z,20.10
2017-03-29T11:22:25.942Z,20.10
2017-03-29T11:23:26.304Z,20.10
2017-03-29T11:24:26.551Z,20.10
2017-03-29T11:25:26.887Z,20.10
2017-03-29T11:26:27.181Z,20.10
2017-03-29T11:27:27.460Z,20.10
2017-03-29T11:28:28.350Z,20.20
2017-03-29T11:29:28.457Z,20.20
2017-03-29T11:30:29.592Z,20.20
2017-03-29T11:31:29.993Z,20.20
2017-03-29T11:32:33.328Z,20.20
2017-03-29T11:33:33.573Z,20.20
2017-03-29T11:34:33.545Z,20.20
2017-03-29T11:35:33.797Z,20.30
2017-03-29T11:36:34.045Z,20.30
2017-03-29T11:37:34.287Z,20.30
2017-03-29T11:38:35.366Z,20.30
2017-03-29T11:39:35.671Z,20.30
2017-03-29T11:40:35.859Z,20.30
2017-03-29T11:41:36.181Z,20.30
2017-03-29T11:42:36.534Z,20.30
2017-03-29T11:43:36.889Z,20.30
2017-03-29T11:44:42.206Z,20.30
2017-03-29T11:45:42.655Z,20.30
2017-03-29T11:46:43.035Z,20.30
2017-03-29T11:47:43.285Z,20.30
2017-03-29T11:48:43.709Z,20.30
2017-03-29T11:49:44.221Z,20.30
2017-03-29T11:50:44.570Z,20.40
2017-03-29T11:51:49.477Z,20.40
2017-03-29T11:52:49.738Z,20.40
2017-03-29T11:53:50.006Z,20.40
2017-03-29T11:54:50.189Z,20.40
2017-03-29T11:55:50.473Z,20.40
2017-03-29T11:56:50.717Z,20.40
2017-03-29T11:57:51.033Z,20.40
2017-03-29T11:58:51.510Z,20.50
2017-03-29T11:59:51.983Z,20.50
2017-03-29T12:00:52.271Z,20.50
2017-03-29T12:01:52.217Z,20.50
2017-03-29T12:02:52.712Z,20.50
2017-03-29T12:03:53.085Z,20.50
2017-03-29T12:04:53.405Z,20.50
2017-03-29T12:05:53.666Z,20.50
2017-03-29T12:06:53.933Z,20.50
2017-03-29T12:07:54.515Z,20.50
2017-03-29T12:08:54.969Z,20.50
2017-03-29T12:09:55.160Z,20.50
2017-03-29T12:10:55.415Z,20.50
2017-03-29T12:11:55.831Z,20.50
2017-03-29T12:12:56.142Z,20.50
2017-03-29T12:13:56.479Z,20.50
2017-03-29T12:14:56.903Z,20.50
2017-03-29T12:15:57.156Z,20.50
2017-03-29T12:16:57.456Z,20.50
2017-03-29T12:17:58.380Z,20.50
2017-03-29T12:18:58.593Z,20.50
2017-03-29T12:19:58.742Z,20.50
2017-03-29T12:20:58.808Z,20.50
2017-03-29T12:21:59.912Z,20.50
2017-03-29T12:23:00.332Z,20.60
2017-03-29T12:24:04.812Z,20.60
2017-03-29T12:25:06.005Z,20.60
2017-03-29T12:26:07.296Z,20.50
2017-03-29T12:27:07.747Z,20.50
2017-03-29T12:28:08.842Z,20.60
2017-03-29T12:29:09.255Z,20.50
2017-03-29T12:30:09.586Z,20.50
2017-03-29T12:31:09.907Z,20.60
2017-03-29T12:32:09.953Z,20.60
2017-03-29T12:33:10.268Z,20.60
2017-03-29T12:34:10.673Z,20.60
2017-03-29T12:35:11.139Z,20.60
2017-03-29T12:36:11.480Z,20.60
2017-03-29T12:37:11.927Z,20.60
2017-03-29T12:38:12.271Z,20.60
2017-03-29T12:39:13.046Z,20.60
2017-03-29T12:40:13.445Z,20.60
2017-03-29T12:41:13.705Z,20.60
2017-03-29T12:42:13.947Z,20.60
2017-03-29T12:43:14.354Z,20.60
2017-03-29T12:44:14.724Z,20.60
2017-03-29T12:45:15.797Z,20.60
2017-03-29T12:46:16.092Z,20.60
2017-03-29T12:47:16.401Z,20.70
2017-03-29T12:48:16.858Z,20.70
2017-03-29T12:49:17.186Z,20.70
2017-03-29T12:50:17.620Z,20.70
2017-03-29T12:51:17.881Z,20.70
2017-03-29T12:52:18.197Z,20.70
2017-03-29T12:53:18.756Z,20.70
2017-03-29T12:54:18.760Z,20.70
2017-03-29T12:55:18.958Z,20.70
2017-03-29T12:56:19.373Z,20.70
2017-03-29T12:57:19.726Z,20.70
2017-03-29T12:58:20.705Z,20.70
2017-03-29T12:59:21.383Z,20.70
2017-03-29T13:00:22.936Z,20.70
2017-03-29T13:01:23.277Z,20.70
2017-03-29T13:02:23.517Z,20.80